Time;durP1;ratioP1;P1;durP2;ratioP2;P2;SDS_P1;SDS_P2;PMS_P1;PMS_P2;Temp;Humidity;BMP_temperature;BMP_pressure;BME280_temperature;BME280_humidity;BME280_pressure;Samples;Min_cycle;Max_cycle;Signal;HPM_P1;HPM_P2
2021/01/08 00:05:55;;;;;;;;;;;;;;;4.38;68.91;100586.22;15844877;28;20130;-58
2021/01/08 00:13:28;;;;;;;1999.90;999.90;;;;;;;4.14;69.72;100582.63;15793620;28;19919;-57
2021/01/08 00:21:01;;;;;;;1999.90;999.90;;;;;;;4.35;68.52;100581.25;15862303;28;20078;-55
2021/01/08 00:28:35;;;;;;;1999.90;999.90;;;;;;;4.33;69.13;100580.75;15842237;28;20044;-57
2021/01/08 00:36:08;;;;;;;1999.90;999.90;;;;;;;4.31;69.39;100581.03;15848455;28;20298;-54
2021/01/08 00:43:42;;;;;;;1999.90;999.90;;;;;;;4.24;69.67;100579.75;15832794;28;20059;-57
2021/01/08 00:51:14;;;;;;;1999.90;999.90;;;;;;;4.19;69.72;100579.81;15856173;28;20057;-52
2021/01/08 00:58:48;;;;;;;1999.90;999.90;;;;;;;4.39;69.22;100570.47;15837775;28;20093;-55
2021/01/08 01:06:22;;;;;;;1999.90;999.90;;;;;;;4.37;69.09;100578.22;15873905;28;20036;-54
2021/01/08 01:13:56;;;;;;;;;;;;;;;4.45;69.07;100589.44;15873326;28;20036;-58
2021/01/08 01:21:29;;;;;;;1999.90;999.90;;;;;;;4.28;68.79;100580.81;15872577;28;19919;-54
2021/01/08 01:29:02;;;;;;;1999.90;999.90;;;;;;;4.33;69.28;100584.34;15870102;28;20043;-55
2021/01/08 01:36:35;;;;;;;;;;;;;;;4.37;68.88;100587.31;15868469;28;20055;-53
2021/01/08 01:44:09;;;;;;;1999.90;999.90;;;;;;;4.36;69.12;100582.91;15867805;28;19939;-54
2021/01/08 01:51:42;;;;;;;1999.90;999.90;;;;;;;4.33;68.99;100576.03;15867069;28;20478;-53
2021/01/08 01:59:15;;;;;;;1999.90;999.90;;;;;;;4.34;68.91;100574.91;15848196;28;20051;-57
2021/01/08 02:06:50;;;;;;;1999.90;999.90;;;;;;;4.35;69.07;100568.28;15848079;28;20489;-55
2021/01/08 02:14:28;;;;;;;1999.90;999.90;;;;;;;4.28;69.53;100578.06;15866398;28;20386;-56
2021/01/08 02:22:13;;;;;;;1999.90;999.90;;;;;;;4.35;69.15;100576.56;15824847;28;20048;-53
2021/01/08 02:29:47;;;;;;;1999.90;999.90;;;;;;;4.29;68.98;100572.25;15828072;28;588775;-52
2021/01/08 02:37:20;;;;;;;1999.90;999.90;;;;;;;4.22;69.25;100579.22;15868145;28;20067;-54
2021/01/08 02:44:54;;;;;;;1999.90;999.90;;;;;;;4.19;69.47;100579.81;15867434;28;20059;-55
2021/01/08 02:52:28;;;;;;;1999.90;999.90;;;;;;;4.21;69.35;100572.06;15866592;28;20042;-54
2021/01/08 03:00:04;;;;;;;1999.90;999.90;;;;;;;4.13;69.53;100575.47;15865114;28;20432;-54
2021/01/08 03:07:38;;;;;;;1999.90;999.90;;;;;;;4.00;70.33;100577.81;15851272;28;20043;-59
2021/01/08 03:15:13;;;;;;;1999.90;999.90;;;;;;;4.15;70.16;100564.94;15864914;28;20108;-56
2021/01/08 03:22:46;;;;;;;1999.90;999.90;;;;;;;4.05;69.96;100566.69;15845034;28;20447;-57
2021/01/08 03:30:21;;;;;;;1999.90;999.90;;;;;;;4.22;69.80;100563.47;15846007;28;20047;-57
2021/01/08 03:37:53;;;;;;;1999.90;999.90;;;;;;;4.28;69.67;100561.47;15863674;28;20108;-55
2021/01/08 03:45:27;;;;;;;1999.90;999.90;;;;;;;4.20;69.74;100564.88;15863357;28;20073;-54
2021/01/08 03:53:00;;;;;;;1999.90;999.90;;;;;;;4.10;69.56;100552.03;15847263;28;20070;-52
2021/01/08 04:00:34;;;;;;;1999.90;999.90;;;;;;;3.84;70.68;100556.16;15837268;28;20120;-60
2021/01/08 04:08:06;;;;;;;1999.90;999.90;;;;;;;3.76;70.63;100550.19;15843852;28;20032;-56
2021/01/08 04:15:40;;;;;;;1999.90;999.90;;;;;;;3.70;70.69;100551.34;15861931;28;20550;-57
2021/01/08 04:23:13;;;;;;;1999.90;999.90;;;;;;;3.72;70.86;100543.59;15862246;28;20074;-57
2021/01/08 04:30:46;;;;;;;1999.90;999.90;;;;;;;3.88;70.37;100546.19;15860910;28;20044;-53
2021/01/08 04:38:19;;;;;;;1999.90;999.90;;;;;;;3.91;70.70;100557.47;15843401;28;20036;-52
2021/01/08 04:45:52;;;;;;;1999.90;999.90;;;;;;;3.94;70.16;100550.53;15826479;28;20054;-56
2021/01/08 04:53:26;;;;;;;;;;;;;;;3.88;70.36;100549.78;15860546;28;20044;-55
2021/01/08 05:01:01;;;;;;;1999.90;999.90;;;;;;;3.70;71.16;100556.03;15860076;28;19927;-56
2021/01/08 05:08:33;;;;;;;1999.90;999.90;;;;;;;3.66;71.13;100557.75;15841263;28;20549;-56
2021/01/08 05:16:08;;;;;;;1999.90;999.90;;;;;;;3.80;71.07;100555.13;15841163;28;20062;-56
2021/01/08 05:23:42;;;;;;;1999.90;999.90;;;;;;;3.74;70.71;100563.44;15865910;28;20063;-57
2021/01/08 05:31:16;;;;;;;1999.90;999.90;;;;;;;3.80;70.80;100564.22;15870234;28;20048;-56
2021/01/08 05:38:50;;;;;;;1999.90;999.90;;;;;;;3.71;70.92;100563.19;15869334;28;20051;-56
2021/01/08 05:46:27;;;;;;;1999.90;999.90;;;;;;;3.73;71.13;100570.06;15851129;28;20043;-52
2021/01/08 05:54:01;;;;;;;1999.90;999.90;;;;;;;3.72;71.05;100560.13;15868958;28;20040;-57
2021/01/08 06:01:36;;;;;;;1999.90;999.90;;;;;;;3.57;71.13;100567.75;15868584;28;20055;-56
2021/01/08 06:09:12;;;;;;;1999.90;999.90;;;;;;;3.65;71.14;100567.97;15849361;28;20047;-55
2021/01/08 06:16:47;;;;;;;1999.90;999.90;;;;;;;3.66;71.24;100569.59;15858169;27;20050;-53
2021/01/08 06:24:24;;;;;;;1999.90;999.90;;;;;;;3.59;70.97;100582.91;15866785;28;20068;-51
2021/01/08 06:31:58;;;;;;;1999.90;999.90;;;;;;;3.57;71.23;100576.03;15864559;28;20539;-53
2021/01/08 06:39:34;;;;;;;1999.90;999.90;;;;;;;3.55;71.93;100581.84;15865482;28;20088;-58
2021/01/08 06:47:09;;;;;;;1999.90;999.90;;;;;;;3.58;71.02;100592.31;15844513;28;20096;-55
2021/01/08 06:54:43;;;;;;;1999.90;999.90;;;;;;;3.57;71.45;100592.59;15829128;28;20430;-56
2021/01/08 07:02:20;;;;;;;1999.90;999.90;;;;;;;3.61;71.40;100601.94;15865019;28;20104;-57
2021/01/08 07:09:54;;;;;;;1999.90;999.90;;;;;;;3.60;71.76;100606.63;15846128;28;20043;-57
2021/01/08 07:17:32;;;;;;;1999.90;999.90;;;;;;;3.60;71.31;100606.63;15864883;28;20039;-53
2021/01/08 07:25:07;;;;;;;1999.90;999.90;;;;;;;3.74;71.27;100623.31;15845832;28;20036;-55
2021/01/08 07:32:43;;;;;;;1999.90;999.90;;;;;;;3.74;71.19;100624.16;15845384;28;20100;-54
2021/01/08 07:40:18;;;;;;;1999.90;999.90;;;;;;;3.59;71.99;100632.56;15863197;28;20528;-59
2021/01/08 07:47:52;;;;;;;1999.90;999.90;;;;;;;3.66;71.69;100638.59;15862342;28;20199;-53
2021/01/08 07:55:45;;;;;;;1999.90;999.90;;;;;;;3.76;71.07;100666.09;15861935;28;20446;-56
2021/01/08 08:03:19;;;;;;;1999.90;999.90;;;;;;;3.66;71.67;100663.44;15843382;28;20067;-56
2021/01/08 08:10:53;;;;;;;1999.90;999.90;;;;;;;3.66;71.56;100666.19;15843076;28;20068;-56
2021/01/08 08:18:27;;;;;;;1999.90;999.90;;;;;;;3.89;71.36;100674.81;15861126;28;20126;-56
2021/01/08 08:26:00;;;;;;;1999.90;999.90;;;;;;;3.86;71.19;100683.69;15843718;27;20096;-53
2021/01/08 08:33:33;;;;;;;1999.90;999.90;;;;;;;3.98;71.17;100689.66;15861630;28;20100;-56
2021/01/08 08:41:14;;;;;;;1999.90;999.90;;;;;;;3.91;71.57;100701.03;15828067;28;20051;-58
2021/01/08 08:48:48;;;;;;;;;;;;;;;3.99;70.79;100697.66;15843457;28;20149;-54
2021/01/08 08:56:21;;;;;;;;;;;;;;;3.72;71.88;100705.59;15843735;28;20146;-60
2021/01/08 09:04:05;;;;;;;1999.90;999.90;;;;;;;4.11;71.34;100701.97;15830862;28;19930;-57
2021/01/08 09:11:54;;;;;;;1999.90;999.90;;;;;;;4.09;71.16;100709.72;15850206;28;20044;-53
2021/01/08 09:19:32;;;;;;;1999.90;999.90;;;;;;;4.07;71.50;100717.47;15872120;28;20039;-55
2021/01/08 09:27:10;;;;;;;1999.90;999.90;;;;;;;4.22;70.98;100723.66;15871559;27;20365;-53
2021/01/08 09:34:43;;;;;;;1999.90;999.90;;;;;;;4.22;70.93;100720.91;15853620;28;20365;-53
2021/01/08 09:42:17;;;;;;;1999.90;999.90;;;;;;;4.24;70.72;100720.63;15835313;28;20066;-55
2021/01/08 09:49:51;;;;;;;;;;;;;;;4.49;70.52;100714.84;15870164;28;20039;-58
2021/01/08 09:57:24;;;;;;;;;;;;;;;4.41;70.81;100709.13;15870599;28;20083;-55
2021/01/08 10:04:58;;;;;;;;;;;;;;;4.64;70.65;100725.72;15835334;28;20036;-59
2021/01/08 10:12:43;;;;;;;1999.90;999.90;;;;;;;4.50;71.27;100716.50;15850265;28;20388;-53
2021/01/08 10:20:18;;;;;;;1999.90;999.90;;;;;;;4.76;70.77;100717.03;15849897;28;20059;-56
2021/01/08 10:27:50;;;;;;;1999.90;999.90;;;;;;;4.97;70.37;100712.06;15841841;27;20040;-55
2021/01/08 10:35:24;;;;;;;1999.90;999.90;;;;;;;4.90;70.09;100714.41;15849501;28;20044;-52
2021/01/08 10:42:57;;;;;;;1999.90;999.90;;;;;;;5.10;70.41;100707.75;15848995;28;20078;-53
2021/01/08 10:50:30;;;;;;;1999.90;999.90;;;;;;;4.88;70.92;100713.84;15848522;28;20238;-55
2021/01/08 10:58:03;;;;;;;1999.90;999.90;;;;;;;4.85;71.41;100714.44;15865848;28;20075;-56
2021/01/08 11:05:38;;;;;;;1999.90;999.90;;;;;;;4.99;71.05;100720.06;15846457;28;20389;-57
2021/01/08 11:13:12;;;;;;;1999.90;999.90;;;;;;;4.84;71.64;100721.09;15865964;28;20048;-56
2021/01/08 11:20:47;;;;;;;1999.90;999.90;;;;;;;4.56;71.85;100712.53;15846016;28;20521;-56
2021/01/08 11:28:20;;;;;;;1999.90;999.90;;;;;;;5.07;71.25;100717.47;15824773;28;20055;-56
2021/01/08 11:35:54;;;;;;;1999.90;999.90;;;;;;;4.84;71.50;100716.38;15847665;27;20043;-53
2021/01/08 11:43:27;;;;;;;1999.90;999.90;;;;;;;5.12;71.50;100720.19;15824885;28;20047;-51
2021/01/08 11:51:01;;;;;;;1999.90;999.90;;;;;;;4.93;72.22;100711.84;15860341;28;20128;-57
2021/01/08 11:58:33;;;;;;;1999.90;999.90;;;;;;;4.93;71.92;100714.63;15861053;28;20088;-54
2021/01/08 12:06:08;;;;;;;1999.90;999.90;;;;;;;5.28;70.72;100719.97;15841605;28;20096;-54
2021/01/08 12:13:45;;;;;;;1999.90;999.90;;;;;;;5.32;70.84;100712.75;15882271;27;20428;-59
2021/01/08 12:21:18;;;;;;;1999.90;999.90;;;;;;;5.05;71.63;100716.13;15924018;27;20126;-55
2021/01/08 12:28:51;;;;;;;1999.90;999.90;;;;;;;5.45;71.34;100725.81;15924239;27;20434;-56
2021/01/08 12:36:25;;;;;;;1999.90;999.90;;;;;;;5.42;70.33;100718.13;15937604;27;20063;-55
2021/01/08 12:43:57;;;;;;;1999.90;999.90;;;;;;;5.15;71.94;100719.59;15936289;27;20043;-56
2021/01/08 12:51:31;;;;;;;1999.90;999.90;;;;;;;4.88;71.97;100724.91;15917000;27;20480;-55
2021/01/08 12:59:04;;;;;;;;;;;;;;;5.17;71.97;100730.34;15918565;27;20126;-57
2021/01/08 13:06:38;;;;;;;1999.90;999.90;;;;;;;4.68;73.16;100725.94;15916271;27;19919;-58
2021/01/08 13:14:14;;;;;;;1999.90;999.90;;;;;;;5.10;72.21;100736.22;15870928;27;20100;-60
2021/01/08 13:22:01;;;;;;;1999.90;999.90;;;;;;;4.86;73.08;100746.50;15854869;28;20466;-57
2021/01/08 13:29:36;;;;;;;1999.90;999.90;;;;;;;4.45;73.64;100746.09;15872345;28;20075;-59
2021/01/08 13:37:11;;;;;;;1999.90;999.90;;;;;;;4.75;72.88;100753.25;15855063;28;20095;-57
2021/01/08 13:44:46;;;;;;;1999.90;999.90;;;;;;;5.01;72.33;100751.88;15850204;28;20047;-59
2021/01/08 13:52:21;;;;;;;1999.90;999.90;;;;;;;4.70;73.02;100770.72;15851325;28;20032;-55
2021/01/08 13:59:55;;;;;;;1999.90;999.90;;;;;;;4.79;74.01;100762.59;15867744;28;20047;-54
2021/01/08 14:07:29;;;;;;;1999.90;999.90;;;;;;;4.62;74.69;100774.94;15868053;28;20399;-50
2021/01/08 14:15:03;;;;;;;1999.90;999.90;;;;;;;4.81;73.53;100776.97;15832226;28;20079;-55
2021/01/08 14:22:37;;;;;;;1999.90;999.90;;;;;;;4.99;72.61;100784.50;15849231;28;20134;-54
2021/01/08 14:30:10;;;;;;;1999.90;999.90;;;;;;;5.01;72.18;100792.53;15848683;28;20478;-55
2021/01/08 14:37:44;;;;;;;1999.90;999.90;;;;;;;5.17;72.23;100796.75;15868001;28;20047;-55
2021/01/08 14:45:17;;;;;;;1999.90;999.90;;;;;;;5.12;72.50;100803.16;15848784;28;20051;-63
2021/01/08 14:52:52;;;;;;;1999.90;999.90;;;;;;;5.20;72.00;100804.44;15841184;28;20119;-55
2021/01/08 15:00:25;;;;;;;1999.90;999.90;;;;;;;4.95;72.70;100810.28;15847903;28;20040;-53
2021/01/08 15:07:59;;;;;;;1999.90;999.90;;;;;;;4.67;73.42;100817.47;15867056;28;20039;-56
2021/01/08 15:15:31;;;;;;;1999.90;999.90;;;;;;;4.57;74.06;100824.75;15865926;28;20591;-55
2021/01/08 15:23:05;;;;;;;1999.90;999.90;;;;;;;4.55;73.03;100839.97;15865067;28;20071;-55
2021/01/08 15:30:38;;;;;;;1999.90;999.90;;;;;;;4.50;72.65;100851.09;15865271;28;20456;-56
2021/01/08 15:38:12;;;;;;;1999.90;999.90;;;;;;;4.56;71.88;100864.53;15864537;28;20042;-51
2021/01/08 15:45:50;;;;;;;1999.90;999.90;;;;;;;4.60;71.68;100876.69;15865063;28;20082;-57
2021/01/08 15:53:25;;;;;;;1999.90;999.90;;;;;;;4.69;72.18;100889.88;15864221;28;20043;-55
2021/01/08 16:00:58;;;;;;;1999.90;999.90;;;;;;;4.63;70.77;100895.44;15864050;28;20044;-52
2021/01/08 16:08:33;;;;;;;1999.90;999.90;;;;;;;4.78;71.12;100901.94;15863535;28;20074;-55
2021/01/08 16:16:06;;;;;;;1999.90;999.90;;;;;;;4.72;71.24;100908.66;15844257;28;20052;-56
2021/01/08 16:23:40;;;;;;;1999.90;999.90;;;;;;;4.63;71.76;100913.97;15845046;28;20051;-55
2021/01/08 16:31:12;;;;;;;1999.90;999.90;;;;;;;4.23;72.78;100920.63;15861946;28;20048;-57
2021/01/08 16:38:47;;;;;;;;;;;;;;;4.56;71.43;100928.13;15844357;28;20047;-57
2021/01/08 16:46:20;;;;;;;1999.90;999.90;;;;;;;4.31;72.14;100942.94;15861598;28;19920;-56
2021/01/08 16:53:55;;;;;;;1999.90;999.90;;;;;;;4.24;71.74;100952.66;15843308;28;20036;-57
2021/01/08 17:01:30;;;;;;;1999.90;999.90;;;;;;;4.16;71.54;100956.00;15842699;28;20044;-53
2021/01/08 17:09:04;;;;;;;1999.90;999.90;;;;;;;4.21;70.96;100954.03;15860668;28;20120;-56
2021/01/08 17:16:37;;;;;;;1999.90;999.90;;;;;;;4.23;70.13;100970.34;15862860;28;20054;-56
2021/01/08 17:24:11;;;;;;;1999.90;999.90;;;;;;;4.09;70.72;100972.91;15854067;28;20412;-53
2021/01/08 17:31:45;;;;;;;1999.90;999.90;;;;;;;4.11;70.55;100986.41;15871439;28;20453;-57
2021/01/08 17:39:18;;;;;;;1999.90;999.90;;;;;;;4.35;69.53;100990.16;15871653;28;20120;-50
2021/01/08 17:46:53;;;;;;;1999.90;999.90;;;;;;;4.32;69.88;100977.75;15870847;28;20453;-56
2021/01/08 17:54:26;;;;;;;1999.90;999.90;;;;;;;4.45;68.30;100981.81;15870515;28;20048;-57
2021/01/08 18:01:59;;;;;;;1999.90;999.90;;;;;;;4.48;68.39;100992.31;15851622;28;20088;-56
2021/01/08 18:09:33;;;;;;;1999.90;999.90;;;;;;;4.11;68.98;100998.28;15869350;28;20100;-54
2021/01/08 18:17:06;;;;;;;1999.90;999.90;;;;;;;4.21;68.49;101003.78;15859718;27;20039;-56
2021/01/08 18:24:39;;;;;;;1999.90;999.90;;;;;;;4.44;67.39;101002.25;15869378;28;20047;-59
2021/01/08 18:32:12;;;;;;;1999.90;999.90;;;;;;;4.63;67.42;101017.06;15868461;28;20035;-57
2021/01/08 18:39:46;;;;;;;1999.90;999.90;;;;;;;4.63;67.43;101021.78;15867759;28;20483;-52
2021/01/08 18:47:18;;;;;;;1999.90;999.90;;;;;;;4.54;66.36;101026.25;15867697;28;20066;-56
2021/01/08 18:54:52;;;;;;;1999.90;999.90;;;;;;;4.44;66.46;101020.78;15866348;28;20142;-55
2021/01/08 19:02:25;;;;;;;1999.90;999.90;;;;;;;4.57;66.25;101018.19;15867807;28;20036;-52
2021/01/08 19:09:59;;;;;;;1999.90;999.90;;;;;;;4.54;66.38;101027.06;15867081;28;20051;-57
2021/01/08 19:17:31;;;;;;;1999.90;999.90;;;;;;;4.38;66.89;101031.06;15867289;28;20056;-60
2021/01/08 19:25:07;;;;;;;1999.90;999.90;;;;;;;4.23;68.51;101034.69;15867268;28;20028;-55
2021/01/08 19:32:43;;;;;;;1999.90;999.90;;;;;;;4.32;68.11;101045.97;15847984;28;20357;-57
2021/01/08 19:40:17;;;;;;;1999.90;999.90;;;;;;;4.31;68.71;101047.09;15847137;28;20075;-54
2021/01/08 19:47:49;;;;;;;;;;;;;;;4.20;69.01;101053.78;15846982;28;20134;-58
2021/01/08 19:55:23;;;;;;;1999.90;999.90;;;;;;;4.34;69.33;101063.09;15846473;27;19963;-52
2021/01/08 20:02:57;;;;;;;1999.90;999.90;;;;;;;4.37;68.64;101070.81;15865355;27;20448;-59
2021/01/08 20:10:32;;;;;;;1999.90;999.90;;;;;;;4.32;69.13;101068.09;15864949;28;20039;-60
2021/01/08 20:18:05;;;;;;;1999.90;999.90;;;;;;;4.13;70.15;101070.63;15863130;28;20039;-53
2021/01/08 20:25:38;;;;;;;1999.90;999.90;;;;;;;4.26;69.37;101074.72;15845541;27;20403;-58
2021/01/08 20:33:13;;;;;;;1999.90;999.90;;;;;;;4.19;69.80;101088.03;15862331;28;20084;-57
2021/01/08 20:40:46;;;;;;;1999.90;999.90;;;;;;;4.04;69.94;101086.97;15843813;28;20044;-59
2021/01/08 20:48:19;;;;;;;1999.90;999.90;;;;;;;4.09;70.67;101096.34;15843886;28;20048;-52
2021/01/08 20:55:53;;;;;;;1999.90;999.90;;;;;;;4.19;70.94;101097.16;15854106;28;20067;-62
2021/01/08 21:03:26;;;;;;;;;;;;;;;4.31;70.55;101099.59;15876423;28;20301;-58
2021/01/08 21:11:00;;;;;;;1999.90;999.90;;;;;;;4.24;70.62;101110.94;15856531;28;20006;-62
2021/01/08 21:18:32;;;;;;;1999.90;999.90;;;;;;;4.20;70.74;101118.13;15856445;28;20044;-63
2021/01/08 21:26:17;;;;;;;1999.90;999.90;;;;;;;4.25;70.90;101120.88;15873987;27;20545;-58
2021/01/08 21:33:50;;;;;;;1999.90;999.90;;;;;;;4.10;71.32;101111.81;15840277;27;20107;-58
2021/01/08 21:41:23;;;;;;;1999.90;999.90;;;;;;;4.14;71.40;101124.78;15848867;27;20071;-55
2021/01/08 21:48:57;;;;;;;1999.90;999.90;;;;;;;3.97;72.56;101121.53;15869510;28;20050;-59
2021/01/08 21:56:31;;;;;;;1999.90;999.90;;;;;;;4.04;71.85;101133.91;15848510;28;20048;-55
2021/01/08 22:04:05;;;;;;;1999.90;999.90;;;;;;;4.10;72.08;101136.66;15841071;28;20044;-57
2021/01/08 22:11:47;;;;;;;;;;;;;;;4.23;71.59;101136.06;15851976;28;20040;-60
2021/01/08 22:19:20;;;;;;;1999.90;999.90;;;;;;;4.03;72.57;101143.31;15851480;28;19920;-52
2021/01/08 22:26:55;;;;;;;1999.90;999.90;;;;;;;3.98;73.02;101139.72;15792025;28;20473;-52
2021/01/08 22:34:28;;;;;;;1999.90;999.90;;;;;;;3.96;73.07;101134.50;15836994;28;20505;-53
2021/01/08 22:42:02;;;;;;;1999.90;999.90;;;;;;;3.89;73.15;101133.13;15841036;28;20389;-54
2021/01/08 22:49:35;;;;;;;1999.90;999.90;;;;;;;3.69;73.42;101132.03;15793605;28;20401;-53
2021/01/08 22:57:09;;;;;;;1999.90;999.90;;;;;;;3.92;73.12;101141.66;15823637;28;20058;-52
2021/01/08 23:04:42;;;;;;;1999.90;999.90;;;;;;;3.90;73.21;101132.84;15808604;28;20131;-54
2021/01/08 23:12:15;;;;;;;1999.90;999.90;;;;;;;3.99;72.79;101141.38;15832195;28;20443;-55
2021/01/08 23:19:48;;;;;;;;;;;;;;;3.97;73.13;101136.16;15802097;28;20097;-55
2021/01/08 23:27:21;;;;;;;1999.90;999.90;;;;;;;4.04;72.75;101156.00;15829374;28;20332;-54
2021/01/08 23:34:54;;;;;;;1999.90;999.90;;;;;;;3.98;73.01;101151.59;15807781;28;20106;-55
2021/01/08 23:42:28;;;;;;;1999.90;999.90;;;;;;;4.08;72.89;101159.06;15817789;28;20032;-51
2021/01/08 23:50:01;;;;;;;1999.90;999.90;;;;;;;4.12;73.00;101162.06;15825219;28;20048;-50
2021/01/08 23:57:35;;;;;;;1999.90;999.90;;;;;;;4.00;72.34;101160.44;15811904;28;20054;-54
